createdAt,value
2023-05-19T00:01:53.548Z,101389.68
2023-05-19T00:04:04.869Z,101383.23
2023-05-19T00:06:15.334Z,101382.16
2023-05-19T00:08:28.065Z,101382.41
2023-05-19T00:10:38.365Z,101379.92
2023-05-19T00:12:50.232Z,101376.73
2023-05-19T00:15:04.344Z,101380.35
2023-05-19T00:17:17.125Z,101375.01
2023-05-19T00:19:28.124Z,101373.2
2023-05-19T00:21:38.912Z,101376.59
2023-05-19T00:23:49.246Z,101379.33
2023-05-19T00:26:01.186Z,101377.88
2023-05-19T00:28:13.144Z,101376.42
2023-05-19T00:30:24.084Z,101371.95
2023-05-19T00:32:34.808Z,101369.09
2023-05-19T00:34:46.185Z,101375.31
2023-05-19T00:36:57.325Z,101371.3
2023-05-19T00:39:08.707Z,101380.75
2023-05-19T00:41:19.764Z,101377.24
2023-05-19T00:43:30.973Z,101375.21
2023-05-19T00:45:43.026Z,101373.56
2023-05-19T00:47:52.538Z,101371.83
2023-05-19T00:50:03.426Z,101370.92
2023-05-19T00:52:16.994Z,101366.84
2023-05-19T00:54:27.763Z,101363.76
2023-05-19T00:56:41.646Z,101364.87
2023-05-19T00:58:53.204Z,101362.55
2023-05-19T01:01:04.655Z,101363.42
2023-05-19T01:03:16.407Z,101361.48
2023-05-19T01:05:28.595Z,101362.47
2023-05-19T01:07:41.345Z,101362.45
2023-05-19T01:09:54.614Z,101364.61
2023-05-19T01:12:06.532Z,101361.22
2023-05-19T01:14:17.606Z,101357.99
2023-05-19T01:16:30.077Z,101360.97
2023-05-19T01:18:41.369Z,101359.61
2023-05-19T01:20:52.983Z,101360.64
2023-05-19T01:23:05.328Z,101360.51
2023-05-19T01:25:17.411Z,101359.63
2023-05-19T01:27:30.623Z,101360.54
2023-05-19T01:29:44.190Z,101355.05
2023-05-19T01:32:00.408Z,101362.05
2023-05-19T01:34:13.266Z,101358.44
2023-05-19T01:36:24.385Z,101359.89
2023-05-19T01:38:35.427Z,101359.89
2023-05-19T01:40:50.170Z,101359.18
2023-05-19T01:43:06.748Z,101354.3
2023-05-19T01:45:19.817Z,101354.06
2023-05-19T01:47:31.423Z,101348.7
2023-05-19T01:49:42.432Z,101349.77
2023-05-19T01:51:55.989Z,101345.8
2023-05-19T01:54:07.350Z,101348.48
2023-05-19T01:56:18.569Z,101345.85
2023-05-19T01:58:29.292Z,101345.38
2023-05-19T02:00:40.107Z,101342.68
2023-05-19T02:02:50.896Z,101345.16
2023-05-19T02:05:01.758Z,101345.69
2023-05-19T02:07:13.110Z,101343.59
2023-05-19T02:09:25.652Z,101345.03
2023-05-19T02:11:37.286Z,101346.77
2023-05-19T02:13:48.012Z,101346.23
2023-05-19T02:15:59.102Z,101345.29
2023-05-19T02:18:10.167Z,101342.48
2023-05-19T02:20:24.127Z,101339.33
2023-05-19T02:22:36.049Z,101341.23
2023-05-19T02:24:47.928Z,101342.77
2023-05-19T02:26:58.754Z,101340.64
2023-05-19T02:29:12.110Z,101337.08
2023-05-19T02:31:24.609Z,101339.34
2023-05-19T02:33:37.246Z,101340
2023-05-19T02:35:57.172Z,101343.02
2023-05-19T02:38:09.424Z,101342.63
2023-05-19T02:40:21.776Z,101340.41
2023-05-19T02:42:36.445Z,101345.01
2023-05-19T02:44:48.227Z,101342.68
2023-05-19T02:47:00.546Z,101342.34
2023-05-19T02:49:11.306Z,101339.7
2023-05-19T02:51:23.328Z,101342.77
2023-05-19T02:53:34.733Z,101342.35
2023-05-19T02:55:46.432Z,101337.94
2023-05-19T02:57:58.448Z,101338.92
2023-05-19T03:00:14.412Z,101339.66
2023-05-19T03:02:26.565Z,101339.66
2023-05-19T03:04:39.084Z,101339.27
2023-05-19T03:06:52.403Z,101345.25
2023-05-19T03:09:03.732Z,101348.09
2023-05-19T03:11:16.152Z,101348.48
2023-05-19T03:13:29.246Z,101344.96
2023-05-19T03:15:41.784Z,101342.23
2023-05-19T03:17:53.905Z,101346.55
2023-05-19T03:20:09.237Z,101346.73
2023-05-19T03:22:22.267Z,101347.18
2023-05-19T03:24:34.987Z,101349.16
2023-05-19T03:26:48.908Z,101348.5
2023-05-19T03:28:59.212Z,101355.86
2023-05-19T03:31:11.906Z,101347.05
2023-05-19T03:33:23.831Z,101347.63
2023-05-19T03:35:38.338Z,101347.55
2023-05-19T03:37:54.077Z,101344.9
2023-05-19T03:40:06.753Z,101349.91
2023-05-19T03:42:17.670Z,101349.02
2023-05-19T03:44:32.512Z,101346.05
2023-05-19T03:46:46.107Z,101345.08
2023-05-19T03:48:58.981Z,101346.13
2023-05-19T03:51:13.384Z,101350.98
2023-05-19T03:53:26.242Z,101348.2
2023-05-19T03:55:38.431Z,101350.3
2023-05-19T03:57:49.169Z,101349.63
2023-05-19T03:59:59.872Z,101354.3
2023-05-19T04:02:11.749Z,101351.35
2023-05-19T04:04:24.685Z,101352.83
2023-05-19T04:06:38.093Z,101356.17
2023-05-19T04:08:50.135Z,101354.11
2023-05-19T04:11:01.477Z,101348.27
2023-05-19T04:13:13.277Z,101347.35
2023-05-19T04:15:24.663Z,101349.2
2023-05-19T04:17:39.216Z,101354.87
2023-05-19T04:19:50.255Z,101352.11
2023-05-19T04:22:03.193Z,101346.64
2023-05-19T04:24:14.430Z,101350.47
2023-05-19T04:26:39.394Z,101347.36
2023-05-19T04:28:52.687Z,101348.11
2023-05-19T04:31:05.131Z,101350.25
2023-05-19T04:33:15.352Z,101346.77
2023-05-19T04:35:26.390Z,101350.33
2023-05-19T04:37:43.349Z,101347.82
2023-05-19T04:39:57.671Z,101353.59
2023-05-19T04:42:10.471Z,101350.33
2023-05-19T04:44:21.687Z,101354.09
2023-05-19T04:46:35.906Z,101355.03
2023-05-19T04:48:47.433Z,101358.34
2023-05-19T04:50:59.608Z,101353.48
2023-05-19T04:53:13.031Z,101356.55
2023-05-19T04:55:28.212Z,101356.47
2023-05-19T04:57:39.175Z,101353.46
2023-05-19T04:59:51.774Z,101352.85
2023-05-19T05:02:03.547Z,101355.86
2023-05-19T05:04:15.850Z,101353.16
2023-05-19T05:06:32.005Z,101358.45
2023-05-19T05:08:46.924Z,101358.34
2023-05-19T05:11:01.451Z,101360
2023-05-19T05:13:15.546Z,101355.8
2023-05-19T05:15:28.498Z,101358.84
2023-05-19T05:17:42.170Z,101358.59
2023-05-19T05:19:53.925Z,101359.11
2023-05-19T05:22:07.448Z,101355.86
2023-05-19T05:24:20.061Z,101351.94
2023-05-19T05:26:31.680Z,101343.98
2023-05-19T05:28:43.546Z,101346.7
2023-05-19T05:30:55.281Z,101345.98
2023-05-19T05:33:06.555Z,101348.06
2023-05-19T05:35:17.198Z,101345.79
2023-05-19T05:37:29.506Z,101345.23
2023-05-19T05:39:40.744Z,101341.02
2023-05-19T05:41:52.427Z,101343.76
2023-05-19T05:44:04.805Z,101337.73
2023-05-19T05:46:16.525Z,101347.41
2023-05-19T05:48:29.448Z,101341.81
2023-05-19T05:50:40.013Z,101345.81
2023-05-19T05:52:51.424Z,101342.1
2023-05-19T05:55:16.372Z,101340.75
2023-05-19T05:57:27.121Z,101336.41
2023-05-19T05:59:37.825Z,101339.34
2023-05-19T06:01:49.633Z,101338.21
2023-05-19T06:04:02.951Z,101342.3
2023-05-19T06:06:17.526Z,101337.09
2023-05-19T06:08:39.967Z,101338.49
2023-05-19T06:10:52.318Z,101341.3
2023-05-19T06:13:07.772Z,101338.72
2023-05-19T06:15:18.698Z,101339.58
2023-05-19T06:17:29.452Z,101341.84
2023-05-19T06:19:41.855Z,101342.89
2023-05-19T06:22:02.470Z,101344.11
2023-05-19T06:24:16.246Z,101349.06
2023-05-19T06:26:28.888Z,101348.67
2023-05-19T06:28:39.804Z,101345.52
2023-05-19T06:30:50.306Z,101350.72
2023-05-19T06:33:08.231Z,101346.06
2023-05-19T06:35:22.005Z,101344.53
2023-05-19T06:37:34.667Z,101346.92
2023-05-19T06:39:49.755Z,101347.8
2023-05-19T06:42:00.769Z,101344.56
2023-05-19T06:44:19.287Z,101341.86
2023-05-19T06:46:35.083Z,101343.6
2023-05-19T06:48:45.889Z,101345.22
2023-05-19T06:50:56.715Z,101345.45
2023-05-19T06:53:09.389Z,101344.93
2023-05-19T06:55:23.216Z,101343.55
2023-05-19T06:57:35.409Z,101340.36
2023-05-19T06:59:48.808Z,101343.13
2023-05-19T07:02:04.155Z,101342.41
2023-05-19T07:04:15.872Z,101340.8
2023-05-19T07:06:26.409Z,101349.41
2023-05-19T07:08:37.734Z,101345.38
2023-05-19T07:10:50.026Z,101341.11
2023-05-19T07:13:03.829Z,101340.58
2023-05-19T07:15:14.909Z,101339.33
2023-05-19T07:17:27.049Z,101335.34
2023-05-19T07:19:40.433Z,101341.05
2023-05-19T07:21:51.632Z,101336.63
2023-05-19T07:24:02.932Z,101337.58
2023-05-19T07:26:19.932Z,101340.82
2023-05-19T07:28:41.759Z,101339.92
2023-05-19T07:30:58.026Z,101341.05
2023-05-19T07:33:12.783Z,101338.33
2023-05-19T07:35:24.930Z,101339.17
2023-05-19T07:37:37.674Z,101342.06
2023-05-19T07:39:50.625Z,101341.19
2023-05-19T07:42:01.446Z,101335
2023-05-19T07:44:12.197Z,101333.13
2023-05-19T07:46:24.116Z,101338.2
2023-05-19T07:48:36.325Z,101341.34
2023-05-19T07:50:48.289Z,101339.4
2023-05-19T07:53:02.452Z,101347.76
2023-05-19T07:55:13.782Z,101344.91
2023-05-19T07:57:24.184Z,101344.08
2023-05-19T07:59:33.641Z,101338.95
2023-05-19T08:01:44.856Z,101337.73
2023-05-19T08:03:55.387Z,101338.02
2023-05-19T08:06:08.125Z,101334.08
2023-05-19T08:08:20.468Z,101331.13
2023-05-19T08:10:31.742Z,101331.3
2023-05-19T08:12:48.024Z,101331.94
2023-05-19T08:15:01.720Z,101331.5
2023-05-19T08:17:12.948Z,101334.61
2023-05-19T08:19:24.784Z,101332.13
2023-05-19T08:21:36.639Z,101330.49
2023-05-19T08:23:47.084Z,101333.22
2023-05-19T08:25:57.567Z,101332.25
2023-05-19T08:28:08.207Z,101330.11
2023-05-19T08:30:19.934Z,101329.13
2023-05-19T08:32:31.511Z,101328.87
2023-05-19T08:34:41.561Z,101332.34
2023-05-19T08:36:55.148Z,101331.31
2023-05-19T08:39:07.716Z,101337.56
2023-05-19T08:41:17.748Z,101334.41
2023-05-19T08:43:28.031Z,101335.66
2023-05-19T08:45:37.726Z,101334.89
2023-05-19T08:47:48.349Z,101333.77
2023-05-19T08:50:00.347Z,101340.22
2023-05-19T08:52:12.963Z,101342.16
2023-05-19T08:54:23.746Z,101342.17
2023-05-19T08:56:34.783Z,101340.17
2023-05-19T08:58:45.565Z,101346.54
2023-05-19T09:00:55.979Z,101342.2
2023-05-19T09:03:23.834Z,101346.16
2023-05-19T09:05:35.467Z,101349.5
2023-05-19T09:07:49.842Z,101338.62
2023-05-19T09:10:00.963Z,101335.41
2023-05-19T09:12:14.417Z,101336.7
2023-05-19T09:14:26.023Z,101339.61
2023-05-19T09:16:37.055Z,101337.63
2023-05-19T09:18:48.073Z,101339.63
2023-05-19T09:20:58.936Z,101337.41
2023-05-19T09:23:09.206Z,101338.64
2023-05-19T09:25:20.603Z,101337.4
2023-05-19T09:27:30.825Z,101333.5
2023-05-19T09:29:41.106Z,101333.67
2023-05-19T09:31:52.046Z,101333.31
2023-05-19T09:34:03.823Z,101329.7
2023-05-19T09:36:14.755Z,101330.03
2023-05-19T09:38:27.050Z,101334.95
2023-05-19T09:40:38.305Z,101328.77
2023-05-19T09:42:51.347Z,101331.12
2023-05-19T09:45:02.767Z,101329.59
2023-05-19T09:47:15.622Z,101333.45
2023-05-19T09:49:26.799Z,101329.53
2023-05-19T09:51:37.601Z,101328.95
2023-05-19T09:53:48.383Z,101330.45
2023-05-19T09:55:59.021Z,101330.27
2023-05-19T09:58:12.771Z,101330
2023-05-19T10:00:23.560Z,101334.34
2023-05-19T10:02:35.486Z,101332.5
2023-05-19T10:04:46.128Z,101324.01
2023-05-19T10:06:57.603Z,101326.84
2023-05-19T10:09:09.906Z,101323.95
2023-05-19T10:11:20.679Z,101326.42
2023-05-19T10:13:31.710Z,101328.09
2023-05-19T10:16:01.810Z,101331.7
2023-05-19T10:18:13.281Z,101327.28
2023-05-19T10:20:27.227Z,101326.18
2023-05-19T10:22:40.527Z,101323.12
2023-05-19T10:25:00.116Z,101320.96
2023-05-19T10:27:13.864Z,101315.28
2023-05-19T10:29:24.632Z,101313.25
2023-05-19T10:31:38.220Z,101316.64
2023-05-19T10:33:49.121Z,101310.94
2023-05-19T10:35:59.434Z,101312.88
2023-05-19T10:38:10.561Z,101305.8
2023-05-19T10:40:23.422Z,101306.58
2023-05-19T10:42:36.526Z,101307.78
2023-05-19T10:44:48.245Z,101301.68
2023-05-19T10:47:01.499Z,101300.84
2023-05-19T10:49:13.449Z,101300.16
2023-05-19T10:51:26.888Z,101298.66
2023-05-19T10:53:46.816Z,101301.8
2023-05-19T10:55:58.525Z,101293.31
2023-05-19T10:58:10.227Z,101295.54
2023-05-19T11:00:27.087Z,101304.04
2023-05-19T11:02:40.821Z,101302.38
2023-05-19T11:04:58.826Z,101305.3
2023-05-19T11:07:08.789Z,101305.67
2023-05-19T11:09:31.301Z,101304.3
2023-05-19T11:11:51.890Z,101301.08
2023-05-19T11:14:05.272Z,101299.61
2023-05-19T11:16:18.982Z,101300.42
2023-05-19T11:18:29.766Z,101296.81
2023-05-19T11:20:41.989Z,101296.2
2023-05-19T11:22:54.210Z,101296.25
2023-05-19T11:25:06.497Z,101302.85
2023-05-19T11:27:18.369Z,101303.2
2023-05-19T11:29:36.176Z,101297.69
2023-05-19T11:31:48.491Z,101299.7
2023-05-19T11:34:00.327Z,101297.99
2023-05-19T11:36:12.632Z,101295.45
2023-05-19T11:38:24.595Z,101299.53
2023-05-19T11:40:36.686Z,101295.96
2023-05-19T11:42:47.366Z,101300.77
2023-05-19T11:44:57.950Z,101297.1
2023-05-19T11:47:08.485Z,101292.95
2023-05-19T11:49:19.390Z,101299.96
2023-05-19T11:51:30.167Z,101301.16
2023-05-19T11:53:43.605Z,101301.69
2023-05-19T11:55:56.621Z,101298.84
2023-05-19T11:58:11.964Z,101297.28
2023-05-19T12:00:24.110Z,101300.73
2023-05-19T12:02:35.906Z,101302.28
2023-05-19T12:04:48.920Z,101305.27
2023-05-19T12:07:03.386Z,101309.22
2023-05-19T12:09:19.645Z,101310.34
2023-05-19T12:11:39.947Z,101309.53
2023-05-19T12:13:53.849Z,101308.36
2023-05-19T12:16:08.374Z,101309.73
2023-05-19T12:18:19.780Z,101309.76
2023-05-19T12:20:32.694Z,101308.25
2023-05-19T12:22:45.624Z,101313.7
2023-05-19T12:25:00.153Z,101307.98
2023-05-19T12:27:17.763Z,101307.11
2023-05-19T12:29:30.405Z,101313.77
2023-05-19T12:31:43.298Z,101307.66
2023-05-19T12:33:56.182Z,101313.39
2023-05-19T12:36:08.669Z,101313.41
2023-05-19T12:38:22.946Z,101317.27
2023-05-19T12:40:35.404Z,101311.85
2023-05-19T12:42:47.268Z,101314.52
2023-05-19T12:44:58.199Z,101307.35
2023-05-19T12:47:14.425Z,101306.62
2023-05-19T12:49:25.347Z,101304.03
2023-05-19T12:51:35.844Z,101303.3
2023-05-19T12:53:46.330Z,101300.36
2023-05-19T12:55:56.774Z,101301.44
2023-05-19T12:58:06.886Z,101298.06
2023-05-19T13:00:17.921Z,101295.32
2023-05-19T13:02:28.252Z,101296.62
2023-05-19T13:04:42.531Z,101295.5
2023-05-19T13:06:55.692Z,101297.02
2023-05-19T13:09:10.412Z,101298
2023-05-19T13:11:24.626Z,101296.4
2023-05-19T13:13:35.392Z,101296.11
2023-05-19T13:15:49.826Z,101297
2023-05-19T13:18:05.642Z,101294.77
2023-05-19T13:20:17.708Z,101297.99
2023-05-19T13:22:34.371Z,101298.66
2023-05-19T13:24:48.943Z,101301.27
2023-05-19T13:27:02.281Z,101305.63
2023-05-19T13:29:14.289Z,101305.32
2023-05-19T13:31:26.890Z,101305.07
2023-05-19T13:33:38.887Z,101302.99
2023-05-19T13:35:49.281Z,101300.73
2023-05-19T13:37:59.745Z,101296.3
2023-05-19T13:40:09.874Z,101298.88
2023-05-19T13:42:19.706Z,101296.83
2023-05-19T13:44:29.926Z,101296.27
2023-05-19T13:46:49.225Z,101293.38
2023-05-19T13:49:01.527Z,101292.01
2023-05-19T13:51:13.629Z,101290.08
2023-05-19T13:53:24.674Z,101289.92
2023-05-19T13:55:35.547Z,101291.45
2023-05-19T13:57:46.890Z,101289.49
2023-05-19T14:00:06.759Z,101289.03
2023-05-19T14:02:17.348Z,101288.3
2023-05-19T14:04:28.450Z,101289.45
2023-05-19T14:06:39.370Z,101292.72
2023-05-19T14:08:50.488Z,101290.82
2023-05-19T14:11:02.088Z,101297.3
2023-05-19T14:15:48.643Z,101299.59
2023-05-19T14:17:59.738Z,101298.36
2023-05-19T14:20:12.564Z,101300.12
2023-05-19T14:22:23.106Z,101299.61
2023-05-19T14:24:34.204Z,101299.17
2023-05-19T14:26:44.292Z,101302.92
2023-05-19T14:28:55.901Z,101305.16
2023-05-19T14:31:09.098Z,101304.83
2023-05-19T14:33:23.663Z,101303.83
2023-05-19T14:35:42.177Z,101301.58
2023-05-19T14:37:52.520Z,101301.5
2023-05-19T14:40:03.969Z,101299.5
2023-05-19T14:42:15.681Z,101299.16
2023-05-19T14:44:27.159Z,101302.5
2023-05-19T14:46:38.637Z,101302.42
2023-05-19T14:48:49.959Z,101305.06
2023-05-19T14:51:01.283Z,101302.88
2023-05-19T14:53:14.780Z,101303.96
2023-05-19T14:55:26.561Z,101303.07
2023-05-19T14:57:38.328Z,101299.73
2023-05-19T14:59:50.324Z,101300.28
2023-05-19T15:02:02.506Z,101297.77
2023-05-19T15:04:14.777Z,101299.92
2023-05-19T15:06:32.023Z,101302.07
2023-05-19T15:08:44.024Z,101302.26
2023-05-19T15:10:56.566Z,101307.17
2023-05-19T15:13:08.068Z,101308.55
2023-05-19T15:15:18.465Z,101307.39
2023-05-19T15:17:30.045Z,101310.42
2023-05-19T15:19:44.486Z,101310.73
2023-05-19T15:21:56.560Z,101310.38
2023-05-19T15:24:08.262Z,101310.39
2023-05-19T15:26:21.563Z,101309.73
2023-05-19T15:28:40.747Z,101309.99
2023-05-19T15:30:53.779Z,101307.08
2023-05-19T15:33:04.637Z,101311.02
2023-05-19T15:35:16.033Z,101309.04
2023-05-19T15:37:27.644Z,101308.19
2023-05-19T15:39:41.050Z,101310.74
2023-05-19T15:41:53.870Z,101307.28
2023-05-19T15:44:08.188Z,101309.47
2023-05-19T15:46:23.437Z,101307.28
2023-05-19T15:48:34.109Z,101308.67
2023-05-19T15:50:45.812Z,101305.3
2023-05-19T15:52:57.848Z,101302.77
2023-05-19T15:55:09.927Z,101304.41
2023-05-19T15:57:20.588Z,101303.81
2023-05-19T15:59:30.686Z,101304.52
2023-05-19T16:01:41.815Z,101302.5
2023-05-19T16:03:52.568Z,101300.21
2023-05-19T16:06:03.117Z,101296.22
2023-05-19T16:08:15.646Z,101296.13
2023-05-19T16:10:27.051Z,101293.92
2023-05-19T16:12:37.838Z,101293.76
2023-05-19T16:14:47.749Z,101292.02
2023-05-19T16:16:58.727Z,101291.74
2023-05-19T16:19:16.800Z,101296.68
2023-05-19T16:21:29.629Z,101296.92
2023-05-19T16:23:40.314Z,101294.09
2023-05-19T16:25:50.974Z,101296.67
2023-05-19T16:28:02.134Z,101297.84
2023-05-19T16:30:14.817Z,101300.49
2023-05-19T16:32:26.355Z,101298.78
2023-05-19T16:34:39.597Z,101299.83
2023-05-19T16:36:50.992Z,101298.83
2023-05-19T16:39:02.119Z,101296.1
2023-05-19T16:41:14.385Z,101295.61
2023-05-19T16:43:25.186Z,101292.95
2023-05-19T16:45:37.380Z,101289.53
2023-05-19T16:47:52.095Z,101296.71
2023-05-19T16:50:03.011Z,101294.7
2023-05-19T16:52:16.457Z,101294.39
2023-05-19T16:54:27.330Z,101294.39
2023-05-19T16:56:38.528Z,101295.22
2023-05-19T16:58:49.359Z,101290.75
2023-05-19T17:00:59.435Z,101297.6
2023-05-19T17:03:09.835Z,101300.34
2023-05-19T17:05:22.611Z,101300.78
2023-05-19T17:07:34.188Z,101299.36
2023-05-19T17:09:44.580Z,101299.37
2023-05-19T17:11:55.143Z,101301.53
2023-05-19T17:14:06.673Z,101298.13
2023-05-19T17:16:17.186Z,101298.86
2023-05-19T17:18:28.526Z,101298.69
2023-05-19T17:20:40.423Z,101299.53
2023-05-19T17:22:50.466Z,101300.63
2023-05-19T17:25:00.926Z,101298.96
2023-05-19T17:27:13.183Z,101297.63
2023-05-19T17:29:24.324Z,101293.64
2023-05-19T17:31:34.410Z,101291.81
2023-05-19T17:33:46.848Z,101291.73
2023-05-19T17:35:58.707Z,101291.58
2023-05-19T17:38:09.788Z,101295.57
2023-05-19T17:40:21.123Z,101302.31
2023-05-19T17:42:32.047Z,101297.23
2023-05-19T17:44:43.716Z,101305.14
2023-05-19T17:46:54.080Z,101304.22
2023-05-19T17:49:04.772Z,101308.55
2023-05-19T17:51:15.025Z,101312.56
2023-05-19T17:53:25.962Z,101309.16
2023-05-19T17:55:36.915Z,101310.73
2023-05-19T17:57:47.735Z,101315.55
2023-05-19T17:59:59.106Z,101313.48
2023-05-19T18:02:10.059Z,101311.3
2023-05-19T18:04:21.386Z,101312.23
2023-05-19T18:06:31.496Z,101312.56
2023-05-19T18:08:41.951Z,101309.98
2023-05-19T18:10:52.614Z,101312.55
2023-05-19T18:13:04.983Z,101312.89
2023-05-19T18:15:17.285Z,101312.63
2023-05-19T18:17:28.792Z,101313.06
2023-05-19T18:19:39.431Z,101317.47
2023-05-19T18:21:51.641Z,101316.13
2023-05-19T18:24:03.027Z,101316.03
2023-05-19T18:26:13.601Z,101315.14
2023-05-19T18:28:23.141Z,101319.8
2023-05-19T18:30:34.882Z,101316.04
2023-05-19T18:32:47.075Z,101320.7
2023-05-19T18:34:57.563Z,101325.77
2023-05-19T18:37:07.805Z,101331.83
2023-05-19T18:39:19.470Z,101331.57
2023-05-19T18:41:29.288Z,101334.73
2023-05-19T18:43:39.326Z,101336.23
2023-05-19T18:45:49.858Z,101337.13
2023-05-19T18:48:00.261Z,101341.12
2023-05-19T18:50:10.690Z,101343.36
2023-05-19T18:52:21.825Z,101351.17
2023-05-19T18:54:33.065Z,101349.22
2023-05-19T18:56:43.683Z,101358.11
2023-05-19T18:58:56.667Z,101358.53
2023-05-19T19:01:07.828Z,101354.22
2023-05-19T19:03:19.624Z,101360.03
2023-05-19T19:05:29.741Z,101360.34
2023-05-19T19:07:39.907Z,101362.61
2023-05-19T19:09:50.986Z,101363.85
2023-05-19T19:12:02.844Z,101361.92
2023-05-19T19:14:13.625Z,101363.44
2023-05-19T19:16:24.953Z,101363.77
2023-05-19T19:18:38.510Z,101362.09
2023-05-19T19:20:51.222Z,101363.34
2023-05-19T19:23:03.640Z,101366.73
2023-05-19T19:25:16.689Z,101368.01
2023-05-19T19:27:30.341Z,101368.07
2023-05-19T19:29:40.702Z,101368.33
2023-05-19T19:31:51.650Z,101369.06
2023-05-19T19:34:02.708Z,101370.49
2023-05-19T19:36:12.981Z,101368.57
2023-05-19T19:38:23.724Z,101369.55
2023-05-19T19:40:33.884Z,101373.21
2023-05-19T19:42:44.644Z,101373.15
2023-05-19T19:44:56.810Z,101371.3
2023-05-19T19:47:07.368Z,101376.72
2023-05-19T19:49:20.945Z,101376.13
2023-05-19T19:51:31.285Z,101375.76
2023-05-19T19:53:42.427Z,101379.16
2023-05-19T19:55:53.803Z,101378.84
2023-05-19T19:58:04.004Z,101378.02
2023-05-19T20:00:14.845Z,101375.77
2023-05-19T20:02:26.798Z,101373.43
2023-05-19T20:04:38.437Z,101375.02
2023-05-19T20:06:49.002Z,101381.74
2023-05-19T20:09:03.683Z,101382.17
2023-05-19T20:11:14.413Z,101383.51
2023-05-19T20:13:24.412Z,101380.81
2023-05-19T20:15:37.584Z,101387.05
2023-05-19T20:17:48.515Z,101390.47
2023-05-19T20:19:58.124Z,101386.29
2023-05-19T20:22:08.110Z,101389.11
2023-05-19T20:24:18.586Z,101391.61
2023-05-19T20:26:28.930Z,101387.96
2023-05-19T20:28:39.953Z,101385.86
2023-05-19T20:30:50.004Z,101385.2
2023-05-19T20:33:01.413Z,101386.03
2023-05-19T20:35:11.314Z,101391.02
2023-05-19T20:37:21.230Z,101391.68
2023-05-19T20:39:30.412Z,101389.45
2023-05-19T20:41:40.063Z,101393.86
2023-05-19T20:43:50.669Z,101393.02
2023-05-19T20:46:00.334Z,101394.41
2023-05-19T20:48:10.678Z,101398.42
2023-05-19T20:50:22.353Z,101398.92
2023-05-19T20:52:33.030Z,101400.39
2023-05-19T20:54:43.677Z,101406.22
2023-05-19T20:56:54.188Z,101400.07
2023-05-19T20:59:05.954Z,101402.13
2023-05-19T21:01:17.364Z,101401.07
2023-05-19T21:03:29.450Z,101398.41
2023-05-19T21:05:40.246Z,101399.94
2023-05-19T21:07:50.667Z,101400.31
2023-05-19T21:10:03.166Z,101396.02
2023-05-19T21:12:15.147Z,101396.01
2023-05-19T21:14:27.925Z,101395.36
2023-05-19T21:16:37.803Z,101392.7
2023-05-19T21:18:48.278Z,101389.52
2023-05-19T21:20:59.128Z,101393.84
2023-05-19T21:23:09.490Z,101390.52
2023-05-19T21:25:20.302Z,101392.58
2023-05-19T21:27:30.488Z,101391.33
2023-05-19T21:29:40.755Z,101392.18
2023-05-19T21:31:50.654Z,101387.35
2023-05-19T21:34:02.069Z,101391.84
2023-05-19T21:36:12.826Z,101392.91
2023-05-19T21:38:27.773Z,101396.73
2023-05-19T21:40:38.185Z,101393.59
2023-05-19T21:42:49.509Z,101398.24
2023-05-19T21:44:59.888Z,101397.91
2023-05-19T21:47:10.670Z,101395.81
2023-05-19T21:49:20.690Z,101394.98
2023-05-19T21:51:31.428Z,101395.09
2023-05-19T21:53:41.626Z,101397.33
2023-05-19T21:55:52.927Z,101395.5
2023-05-19T21:58:05.384Z,101392.27
2023-05-19T22:00:15.847Z,101389.85
2023-05-19T22:02:26.608Z,101389.69
2023-05-19T22:04:37.026Z,101392.92
2023-05-19T22:06:47.366Z,101385.19
2023-05-19T22:08:57.804Z,101389.33
2023-05-19T22:11:08.182Z,101387.02
2023-05-19T22:13:20.046Z,101384.69
2023-05-19T22:15:32.067Z,101382.44
2023-05-19T22:17:42.884Z,101388.08
2023-05-19T22:19:53.447Z,101386.83
2023-05-19T22:22:17.285Z,101387.5
2023-05-19T22:24:27.584Z,101387.58
2023-05-19T22:26:37.964Z,101390.56
2023-05-19T22:28:48.723Z,101388.09
2023-05-19T22:30:59.383Z,101389.5
2023-05-19T22:33:09.955Z,101394.3
2023-05-19T22:35:20.484Z,101392.91
2023-05-19T22:37:31.252Z,101387.83
2023-05-19T22:39:41.082Z,101384.69
2023-05-19T22:41:51.825Z,101384.69
2023-05-19T22:44:02.622Z,101388.25
2023-05-19T22:46:13.261Z,101383.59
2023-05-19T22:48:23.688Z,101384.78
2023-05-19T22:50:34.121Z,101380.63
2023-05-19T22:52:44.782Z,101382.45
2023-05-19T22:54:55.163Z,101385.34
2023-05-19T22:57:05.533Z,101383.77
2023-05-19T22:59:15.962Z,101377.03
2023-05-19T23:01:26.074Z,101380.29
2023-05-19T23:03:37.158Z,101376.2
2023-05-19T23:05:48.156Z,101374.06
2023-05-19T23:07:58.384Z,101376.8
2023-05-19T23:10:09.039Z,101374.47
2023-05-19T23:12:19.700Z,101379.48
2023-05-19T23:14:31.206Z,101383.78
2023-05-19T23:16:41.796Z,101383.38
2023-05-19T23:18:52.713Z,101386.38
2023-05-19T23:21:05.062Z,101383.38
2023-05-19T23:23:16.302Z,101379.21
2023-05-19T23:25:26.660Z,101377.97
2023-05-19T23:27:37.199Z,101383.12
2023-05-19T23:29:48.261Z,101384.13
2023-05-19T23:32:00.280Z,101383.98
2023-05-19T23:34:11.899Z,101380.22
2023-05-19T23:36:22.130Z,101376.31
2023-05-19T23:38:32.182Z,101379.97
2023-05-19T23:40:42.764Z,101379.21
2023-05-19T23:42:54.492Z,101376.91
2023-05-19T23:45:06.576Z,101377.58
2023-05-19T23:47:16.989Z,101377.49
2023-05-19T23:49:27.149Z,101379.82
2023-05-19T23:51:37.593Z,101380.8
2023-05-19T23:53:48.731Z,101384.11
2023-05-19T23:56:01.170Z,101379.22
2023-05-19T23:58:12.231Z,101374.98
